Time;durP1;ratioP1;P1;durP2;ratioP2;P2;SDS_P1;SDS_P2;PMS_P1;PMS_P2;Temp;Humidity;BMP_temperature;BMP_pressure;BME280_temperature;BME280_humidity;BME280_pressure;Samples;Min_cycle;Max_cycle;Signal;HPM_P1;HPM_P2
2023/02/04 00:01:23;;;;;;;15.70;1.17;;;6.80;99.90;;;;;;5039779;28;20074;-76
2023/02/04 00:03:49;;;;;;;25.80;1.90;;;6.70;99.90;;;;;;5020521;28;20485;-77
2023/02/04 00:06:14;;;;;;;21.52;1.30;;;6.80;99.90;;;;;;5037005;28;20535;-76
2023/02/04 00:08:40;;;;;;;19.15;2.22;;;6.70;99.90;;;;;;5044657;28;20024;-77
2023/02/04 00:11:06;;;;;;;16.02;1.27;;;6.70;99.90;;;;;;5036442;28;20519;-77
2023/02/04 00:13:31;;;;;;;17.75;1.30;;;6.60;99.90;;;;;;5034016;28;20025;-78
2023/02/04 00:15:57;;;;;;;12.50;1.00;;;6.60;99.90;;;;;;5028388;28;20032;-78
2023/02/04 00:18:23;;;;;;;14.35;1.75;;;6.50;99.90;;;;;;5037731;28;20064;-77
2023/02/04 00:20:48;;;;;;;15.60;1.15;;;6.40;99.90;;;;;;5026399;28;20405;-77
2023/02/04 00:23:14;;;;;;;13.98;1.85;;;6.40;99.90;;;;;;5036645;28;20021;-77
2023/02/04 00:25:40;;;;;;;11.30;1.55;;;6.40;99.90;;;;;;5040526;28;20025;-77
2023/02/04 00:28:06;;;;;;;18.42;1.00;;;6.40;99.90;;;;;;5035155;28;20107;-76
2023/02/04 00:30:32;;;;;;;12.85;1.02;;;6.40;99.90;;;;;;5045110;28;20032;-78
2023/02/04 00:32:58;;;;;;;14.48;0.98;;;6.40;99.90;;;;;;5035829;28;20021;-76
2023/02/04 00:35:24;;;;;;;11.05;1.00;;;6.40;99.90;;;;;;5037343;28;20032;-77
2023/02/04 00:37:51;;;;;;;16.63;1.92;;;6.30;99.90;;;;;;5035001;28;20068;-80
2023/02/04 00:40:17;;;;;;;12.13;1.30;;;6.30;99.90;;;;;;5033272;28;20092;-77
2023/02/04 00:42:43;;;;;;;10.48;0.63;;;6.30;99.90;;;;;;5038339;28;20417;-77
2023/02/04 00:45:10;;;;;;;9.90;0.70;;;6.30;99.90;;;;;;5043189;28;20731;-76
2023/02/04 00:47:37;;;;;;;17.33;1.52;;;6.30;99.90;;;;;;5033267;28;20028;-76
2023/02/04 00:50:03;;;;;;;15.13;1.10;;;6.30;99.90;;;;;;5043447;28;20053;-77
2023/02/04 00:52:29;;;;;;;14.15;1.30;;;6.40;99.90;;;;;;5045274;28;20037;-77
2023/02/04 00:54:55;;;;;;;16.80;1.20;;;6.40;99.90;;;;;;5021000;28;20026;-77
2023/02/04 00:57:21;;;;;;;14.32;0.77;;;6.40;99.90;;;;;;5017800;28;20116;-77
2023/02/04 00:59:46;;;;;;;15.27;1.40;;;6.40;99.90;;;;;;5035586;28;20120;-77
2023/02/04 01:02:12;;;;;;;13.35;0.98;;;6.40;99.90;;;;;;5037931;28;20041;-76
2023/02/04 01:04:38;;;;;;;13.48;0.98;;;6.40;99.90;;;;;;5041102;28;20040;-77
2023/02/04 01:07:04;;;;;;;13.27;0.80;;;6.40;99.90;;;;;;5042704;28;20502;-77
2023/02/04 01:09:29;;;;;;;15.27;1.45;;;6.50;99.90;;;;;;5048745;28;20506;-77
2023/02/04 01:11:56;;;;;;;12.32;1.00;;;6.50;99.90;;;;;;5047476;28;20037;-77
2023/02/04 01:14:21;;;;;;;16.67;1.13;;;6.50;99.90;;;;;;5023779;28;20029;-77
2023/02/04 01:16:47;;;;;;;15.25;1.35;;;6.50;99.90;;;;;;5042190;28;20047;-77
2023/02/04 01:19:13;;;;;;;17.83;1.85;;;6.60;99.90;;;;;;5046054;28;20482;-77
2023/02/04 01:21:39;;;;;;;11.65;1.13;;;6.70;99.90;;;;;;5040551;28;20021;-77
2023/02/04 01:24:05;;;;;;;15.50;1.05;;;6.70;99.90;;;;;;5038989;28;20486;-76
2023/02/04 01:26:50;;;;;;;18.45;1.35;;;6.70;99.90;;;;;;5043460;28;20397;-77
2023/02/04 01:29:16;;;;;;;21.30;1.00;;;6.70;99.90;;;;;;5040390;28;20021;-76
2023/02/04 01:31:42;;;;;;;10.60;1.35;;;6.70;99.90;;;;;;5027788;28;20021;-76
2023/02/04 01:34:08;;;;;;;10.30;0.73;;;6.60;99.90;;;;;;5047723;28;20102;-77
2023/02/04 01:36:34;;;;;;;13.05;1.00;;;6.70;99.90;;;;;;5037788;28;20107;-77
2023/02/04 01:38:59;;;;;;;13.85;1.63;;;6.70;99.90;;;;;;5047461;28;20029;-77
2023/02/04 01:41:26;;;;;;;11.55;0.90;;;6.60;99.90;;;;;;5025586;28;20025;-77
2023/02/04 01:43:53;;;;;;;6.53;0.70;;;6.60;99.90;;;;;;5039620;28;20135;-77
2023/02/04 01:46:18;;;;;;;15.85;0.88;;;6.60;99.90;;;;;;5036026;28;20030;-76
2023/02/04 01:48:45;;;;;;;7.30;0.70;;;6.60;99.90;;;;;;5041422;28;20520;-78
2023/02/04 01:51:14;;;;;;;11.43;0.95;;;6.60;99.90;;;;;;5029584;28;20075;-76
2023/02/04 01:53:41;;;;;;;10.07;0.73;;;6.50;99.90;;;;;;5042255;28;20060;-77
2023/02/04 01:56:20;;;;;;;13.63;1.27;;;6.60;99.90;;;;;;5024193;28;20036;-76
2023/02/04 01:58:46;;;;;;;10.80;0.98;;;6.50;99.90;;;;;;5037568;28;20034;-77
2023/02/04 02:01:33;;;;;;;12.70;1.73;;;6.50;99.90;;;;;;5041399;28;20033;-78
2023/02/04 02:04:00;;;;;;;15.20;1.08;;;6.50;99.90;;;;;;5040263;28;20084;-76
2023/02/04 02:06:26;;;;;;;11.90;0.98;;;6.50;99.90;;;;;;5026176;28;20025;-81
2023/02/04 02:08:52;;;;;;;13.90;0.85;;;6.40;99.90;;;;;;5035877;28;20026;-78
2023/02/04 02:11:19;;;;;;;11.68;0.77;;;6.40;99.90;;;;;;5037482;28;20036;-79
2023/02/04 02:13:45;;;;;;;13.38;0.90;;;6.40;99.90;;;;;;5045104;28;20029;-80
2023/02/04 02:16:11;;;;;;;16.23;1.33;;;6.40;99.90;;;;;;5044491;28;20026;-80
2023/02/04 02:18:37;;;;;;;16.08;1.85;;;6.50;99.90;;;;;;5042990;28;20469;-81
2023/02/04 02:21:07;;;;;;;10.43;0.70;;;6.30;99.90;;;;;;5038897;28;20047;-78
2023/02/04 02:23:51;;;;;;;10.98;0.68;;;6.20;99.90;;;;;;5036282;28;20541;-80
2023/02/04 02:26:19;;;;;;;5.03;0.60;;;6.10;99.90;;;;;;5037618;28;20072;-79
2023/02/04 02:28:46;;;;;;;8.77;0.70;;;6.10;99.90;;;;;;5039024;28;20157;-80
2023/02/04 02:31:14;;;;;;;7.78;0.63;;;6.00;99.90;;;;;;5037178;28;20508;-79
2023/02/04 02:33:40;;;;;;;4.50;0.40;;;6.00;99.90;;;;;;5030755;28;20029;-78
2023/02/04 02:36:06;;;;;;;13.75;1.10;;;5.90;99.90;;;;;;5032857;28;20024;-81
2023/02/04 02:38:32;;;;;;;11.73;1.40;;;5.90;99.90;;;;;;5038422;28;20068;-81
2023/02/04 02:40:59;;;;;;;6.57;0.50;;;5.90;99.90;;;;;;5028806;28;20025;-79
2023/02/04 02:43:27;;;;;;;5.78;0.60;;;5.80;99.90;;;;;;5035857;28;20297;-81
2023/02/04 02:45:55;;;;;;;5.75;0.50;;;5.80;99.90;;;;;;5028739;28;20116;-81
2023/02/04 02:48:21;;;;;;;7.18;0.50;;;5.80;99.90;;;;;;5029203;28;20068;-79
2023/02/04 02:50:48;;;;;;;6.72;0.40;;;5.70;99.90;;;;;;5025422;28;20033;-78
2023/02/04 02:53:16;;;;;;;6.78;0.50;;;5.70;99.90;;;;;;5042190;28;20079;-78
2023/02/04 02:55:44;;;;;;;6.63;0.50;;;5.70;99.90;;;;;;5041936;28;20052;-80
2023/02/04 02:58:31;;;;;;;7.70;0.50;;;5.70;99.90;;;;;;5044191;28;20026;-81
2023/02/04 03:00:59;;;;;;;4.60;0.40;;;5.50;99.90;;;;;;5038595;28;20029;-77
2023/02/04 03:03:29;;;;;;;9.35;0.45;;;5.40;99.90;;;;;;5041512;28;20071;-78
2023/02/04 03:05:59;;;;;;;5.60;0.40;;;5.40;99.90;;;;;;5042644;28;20565;-77
2023/02/04 03:08:25;;;;;;;3.28;0.30;;;5.40;99.90;;;;;;5025768;28;20036;-77
2023/02/04 03:10:51;;;;;;;5.22;0.38;;;5.30;99.90;;;;;;5038980;28;20264;-77
2023/02/04 03:13:18;;;;;;;5.32;0.50;;;5.30;99.90;;;;;;5038372;28;20063;-78
2023/02/04 03:15:45;;;;;;;10.38;0.40;;;5.30;99.90;;;;;;5035989;28;20390;-78
2023/02/04 03:18:14;;;;;;;7.85;0.35;;;5.40;99.90;;;;;;5044014;28;20064;-76
2023/02/04 03:20:41;;;;;;;8.55;0.50;;;5.40;99.90;;;;;;5019816;28;20030;-76
2023/02/04 03:23:07;;;;;;;4.50;0.30;;;5.40;99.90;;;;;;5022005;28;20386;-78
2023/02/04 03:25:33;;;;;;;5.72;0.52;;;5.40;99.90;;;;;;5040362;28;20042;-81
2023/02/04 03:27:59;;;;;;;5.93;0.50;;;5.50;99.90;;;;;;5045635;28;20047;-78
2023/02/04 03:30:25;;;;;;;6.88;0.45;;;5.50;99.90;;;;;;5023225;28;20029;-79
2023/02/04 03:32:52;;;;;;;8.75;0.52;;;5.50;99.90;;;;;;5025454;28;20067;-77
2023/02/04 03:35:17;;;;;;;6.82;0.40;;;5.40;99.90;;;;;;5021824;28;20037;-77
2023/02/04 03:37:43;;;;;;;4.88;0.30;;;5.40;99.90;;;;;;5025196;28;20017;-76
2023/02/04 03:40:10;;;;;;;6.05;0.60;;;5.30;99.90;;;;;;5043503;28;20037;-77
2023/02/04 03:42:36;;;;;;;7.38;1.23;;;5.30;99.90;;;;;;5042477;28;20025;-79
2023/02/04 03:45:01;;;;;;;8.88;0.40;;;5.30;99.90;;;;;;5035762;28;20037;-77
2023/02/04 03:47:27;;;;;;;5.78;0.43;;;5.40;99.90;;;;;;5052961;28;20021;-80
2023/02/04 03:49:53;;;;;;;16.75;0.90;;;5.40;99.90;;;;;;5035873;28;20053;-78
2023/02/04 03:52:19;;;;;;;9.40;0.60;;;5.40;99.90;;;;;;5035532;28;20053;-79
2023/02/04 03:54:45;;;;;;;9.77;0.80;;;5.40;99.90;;;;;;5035296;28;20159;-79
2023/02/04 03:57:11;;;;;;;7.53;0.68;;;5.50;99.90;;;;;;5038750;28;20026;-79
2023/02/04 03:59:36;;;;;;;12.77;1.15;;;5.50;99.90;;;;;;5033462;28;20048;-79
2023/02/04 04:02:02;;;;;;;6.78;0.50;;;5.50;99.90;;;;;;5032143;28;20130;-78
2023/02/04 04:04:28;;;;;;;9.50;0.73;;;5.50;99.90;;;;;;5038989;28;20033;-78
2023/02/04 04:06:54;;;;;;;5.30;0.63;;;5.50;99.90;;;;;;5036589;28;20033;-78
2023/02/04 04:09:20;;;;;;;7.35;0.60;;;5.40;99.90;;;;;;5043431;28;20620;-76
2023/02/04 04:11:45;;;;;;;5.78;0.73;;;5.40;99.90;;;;;;5045229;28;20068;-77
2023/02/04 04:14:11;;;;;;;10.15;1.05;;;5.40;99.90;;;;;;5028520;28;20037;-80
2023/02/04 04:16:37;;;;;;;6.93;0.50;;;5.40;99.90;;;;;;5037040;28;20017;-80
2023/02/04 04:19:02;;;;;;;12.40;0.50;;;5.30;99.90;;;;;;5037977;28;20128;-81
2023/02/04 04:21:28;;;;;;;6.65;0.50;;;5.30;99.90;;;;;;5041297;28;20021;-80
2023/02/04 04:23:55;;;;;;;6.03;0.40;;;5.30;99.90;;;;;;5039819;28;20029;-81
2023/02/04 04:26:20;;;;;;;7.30;0.50;;;5.30;99.90;;;;;;5025731;28;20060;-78
2023/02/04 04:28:46;;;;;;;11.00;0.70;;;5.30;99.90;;;;;;5037564;28;20033;-78
2023/02/04 04:31:12;;;;;;;10.68;0.88;;;5.30;99.90;;;;;;5034337;28;20043;-78
2023/02/04 04:33:38;;;;;;;10.23;0.63;;;5.30;99.90;;;;;;5035520;28;20034;-77
2023/02/04 04:36:04;;;;;;;12.18;1.40;;;5.30;99.90;;;;;;5035897;28;20392;-79
2023/02/04 04:38:30;;;;;;;13.93;1.08;;;5.30;99.90;;;;;;5038453;28;20049;-76
2023/02/04 04:40:56;;;;;;;12.68;0.70;;;5.20;99.90;;;;;;5041434;28;20087;-79
2023/02/04 04:43:21;;;;;;;9.05;0.52;;;5.30;99.90;;;;;;5037565;28;20021;-78
2023/02/04 04:45:47;;;;;;;9.50;0.85;;;5.30;99.90;;;;;;5042865;28;20032;-79
2023/02/04 04:48:13;;;;;;;9.68;1.25;;;5.30;99.90;;;;;;5040093;28;20071;-80
2023/02/04 04:50:38;;;;;;;8.40;0.50;;;5.40;99.90;;;;;;5040931;28;20418;-79
2023/02/04 04:53:05;;;;;;;11.00;0.75;;;5.30;99.90;;;;;;5046704;28;20041;-78
2023/02/04 04:55:31;;;;;;;10.43;0.50;;;5.30;99.90;;;;;;5028055;28;20040;-80
2023/02/04 04:57:57;;;;;;;5.80;0.50;;;5.30;99.90;;;;;;5043700;28;20113;-79
2023/02/04 05:00:23;;;;;;;6.95;0.65;;;5.20;99.90;;;;;;5041632;28;20143;-77
2023/02/04 05:02:48;;;;;;;10.07;0.80;;;5.20;99.90;;;;;;5040182;28;20119;-78
2023/02/04 05:05:14;;;;;;;9.52;0.50;;;5.20;99.90;;;;;;5038090;28;20380;-78
2023/02/04 05:07:40;;;;;;;4.15;0.40;;;5.10;99.90;;;;;;5040882;28;20026;-78
2023/02/04 05:10:06;;;;;;;6.53;0.40;;;5.00;99.90;;;;;;5037639;28;20044;-77
2023/02/04 05:12:32;;;;;;;7.38;0.40;;;5.00;99.90;;;;;;5038586;28;20053;-80
2023/02/04 05:14:57;;;;;;;6.20;0.40;;;5.00;99.90;;;;;;5025433;28;20115;-78
2023/02/04 05:17:23;;;;;;;5.53;0.40;;;4.90;99.90;;;;;;5046882;28;20040;-78
2023/02/04 05:19:49;;;;;;;4.93;0.30;;;4.90;99.90;;;;;;5047717;28;20033;-77
2023/02/04 05:22:14;;;;;;;5.47;0.40;;;4.90;99.90;;;;;;5044676;28;20603;-77
2023/02/04 05:24:40;;;;;;;3.38;0.30;;;5.00;99.90;;;;;;5038382;28;20087;-77
2023/02/04 05:27:05;;;;;;;6.55;0.80;;;5.00;99.90;;;;;;5048531;28;20090;-76
2023/02/04 05:29:31;;;;;;;5.20;0.32;;;5.00;99.90;;;;;;5045024;28;20401;-77
2023/02/04 05:31:57;;;;;;;7.35;0.30;;;5.00;99.90;;;;;;5026943;28;20072;-76
2023/02/04 05:34:22;;;;;;;4.47;0.20;;;5.00;99.90;;;;;;5026776;28;20425;-77
2023/02/04 05:36:48;;;;;;;6.88;0.30;;;4.90;99.90;;;;;;5040894;28;20137;-81
2023/02/04 05:39:14;;;;;;;5.03;0.40;;;4.90;99.90;;;;;;5036846;28;20040;-77
2023/02/04 05:41:39;;;;;;;7.32;0.50;;;4.80;99.90;;;;;;5035913;28;20045;-80
2023/02/04 05:44:05;;;;;;;7.30;0.50;;;4.80;99.90;;;;;;5043188;28;20044;-80
2023/02/04 05:46:31;;;;;;;9.35;0.65;;;4.70;99.90;;;;;;5048366;28;20493;-80
2023/02/04 05:48:57;;;;;;;7.35;0.30;;;4.70;99.90;;;;;;5030533;28;20057;-79
2023/02/04 05:51:22;;;;;;;5.85;0.35;;;4.70;99.90;;;;;;5021540;28;20033;-77
2023/02/04 05:53:48;;;;;;;9.48;0.50;;;4.70;99.90;;;;;;5041984;28;20057;-77
2023/02/04 05:56:14;;;;;;;4.07;0.20;;;4.60;99.90;;;;;;5038858;28;20112;-81
2023/02/04 05:58:40;;;;;;;5.63;0.60;;;4.70;99.90;;;;;;5038271;28;20033;-77
2023/02/04 06:01:05;;;;;;;4.18;0.47;;;4.70;99.90;;;;;;5030921;28;20060;-79
2023/02/04 06:03:31;;;;;;;7.80;0.30;;;4.70;99.90;;;;;;5021707;28;20025;-79
2023/02/04 06:05:57;;;;;;;4.53;0.32;;;4.60;99.90;;;;;;5039204;28;20535;-78
2023/02/04 06:08:23;;;;;;;6.32;0.52;;;4.60;99.90;;;;;;5029533;28;20029;-80
2023/02/04 06:10:49;;;;;;;5.85;0.50;;;4.50;99.90;;;;;;5037053;28;20029;-78
2023/02/04 06:13:15;;;;;;;4.78;0.40;;;4.50;99.90;;;;;;5038186;28;20424;-79
2023/02/04 06:15:41;;;;;;;5.78;0.40;;;4.40;99.90;;;;;;5040618;28;20121;-79
2023/02/04 06:18:07;;;;;;;6.25;0.30;;;4.40;99.90;;;;;;5037508;28;20112;-80
2023/02/04 06:20:32;;;;;;;4.45;0.30;;;4.40;99.90;;;;;;5043444;28;20029;-78
2023/02/04 06:22:58;;;;;;;4.80;0.50;;;4.30;99.90;;;;;;5034491;28;20021;-78
2023/02/04 06:25:24;;;;;;;6.30;0.40;;;4.30;99.90;;;;;;5025606;28;20040;-77
2023/02/04 06:27:50;;;;;;;4.28;0.30;;;4.30;99.90;;;;;;5038981;28;20032;-78
2023/02/04 06:30:16;;;;;;;5.50;0.40;;;4.30;99.90;;;;;;5038807;28;20028;-79
2023/02/04 06:32:43;;;;;;;5.63;0.40;;;4.10;99.90;;;;;;5047369;28;20082;-79
2023/02/04 06:35:08;;;;;;;3.70;0.30;;;4.10;99.90;;;;;;5039341;28;20025;-77
2023/02/04 06:37:34;;;;;;;3.35;0.60;;;4.10;99.90;;;;;;5038633;28;20090;-77
2023/02/04 06:40:00;;;;;;;3.40;0.30;;;4.10;99.90;;;;;;5022414;28;20443;-77
2023/02/04 06:42:26;;;;;;;6.93;0.40;;;4.00;99.90;;;;;;5039239;28;20143;-77
2023/02/04 06:44:52;;;;;;;5.00;0.52;;;4.00;99.90;;;;;;5036763;28;20036;-82
2023/02/04 06:47:18;;;;;;;4.82;0.30;;;4.00;99.90;;;;;;5040506;28;20165;-78
2023/02/04 06:49:44;;;;;;;2.90;0.30;;;4.00;99.90;;;;;;5045543;28;20411;-78
2023/02/04 06:52:10;;;;;;;5.03;0.50;;;4.00;99.90;;;;;;5039988;28;20026;-78
2023/02/04 06:54:36;;;;;;;6.47;0.50;;;4.10;99.90;;;;;;5023549;28;20025;-80
2023/02/04 06:57:07;;;;;;;6.95;0.40;;;4.10;99.90;;;;;;5035835;28;20040;-78
2023/02/04 06:59:35;;;;;;;8.32;0.60;;;4.10;99.90;;;;;;5036779;28;20504;-77
2023/02/04 07:02:01;;;;;;;5.18;0.50;;;4.10;99.90;;;;;;5026153;28;20368;-79
2023/02/04 07:04:27;;;;;;;5.78;0.30;;;4.20;99.90;;;;;;5040052;28;20025;-77
2023/02/04 07:06:53;;;;;;;3.90;0.40;;;4.20;99.90;;;;;;5037270;28;20025;-78
2023/02/04 07:09:18;;;;;;;4.80;0.45;;;4.20;99.90;;;;;;5046753;28;20056;-76
2023/02/04 07:11:44;;;;;;;5.05;0.40;;;4.20;99.90;;;;;;5045133;28;20393;-79
2023/02/04 07:14:09;;;;;;;5.57;0.30;;;4.30;99.90;;;;;;5039376;28;20512;-78
2023/02/04 07:16:36;;;;;;;5.70;0.60;;;4.30;99.90;;;;;;5042437;28;20477;-79
2023/02/04 07:19:02;;;;;;;4.00;0.40;;;4.30;99.90;;;;;;5023607;28;20391;-77
2023/02/04 07:21:27;;;;;;;6.47;0.50;;;4.30;99.90;;;;;;5035328;28;20025;-78
2023/02/04 07:23:53;;;;;;;5.43;0.40;;;4.40;99.90;;;;;;5027758;28;20037;-77
2023/02/04 07:26:19;;;;;;;3.67;0.68;;;4.40;99.90;;;;;;5036352;28;20079;-77
2023/02/04 07:28:45;;;;;;;5.80;0.40;;;4.50;99.90;;;;;;5039012;28;20036;-76
2023/02/04 07:31:10;;;;;;;3.45;0.40;;;4.50;99.90;;;;;;5037668;28;20116;-81
2023/02/04 07:33:36;;;;;;;3.08;0.32;;;4.50;99.90;;;;;;5038066;28;20037;-78
2023/02/04 07:36:02;;;;;;;3.60;0.40;;;4.50;99.90;;;;;;5022767;28;20067;-76
2023/02/04 07:38:27;;;;;;;6.35;0.43;;;4.50;99.90;;;;;;5035248;28;20322;-80
2023/02/04 07:40:53;;;;;;;3.85;0.63;;;4.60;99.90;;;;;;5020359;28;20045;-77
2023/02/04 07:43:19;;;;;;;3.72;0.32;;;4.60;99.90;;;;;;5028892;28;20025;-77
2023/02/04 07:45:44;;;;;;;6.20;0.50;;;4.70;99.90;;;;;;5026784;28;20029;-80
2023/02/04 07:48:10;;;;;;;7.20;0.50;;;4.80;99.90;;;;;;5027210;28;20469;-78
2023/02/04 07:50:36;;;;;;;3.15;0.40;;;4.90;99.90;;;;;;5025625;28;20470;-80
2023/02/04 07:53:02;;;;;;;4.88;0.38;;;4.90;99.90;;;;;;5039085;28;20099;-77
2023/02/04 07:55:28;;;;;;;6.10;0.40;;;4.90;99.90;;;;;;5022512;28;20466;-76
2023/02/04 07:57:54;;;;;;;4.93;0.45;;;5.00;99.90;;;;;;5035185;28;20028;-77
2023/02/04 08:00:20;;;;;;;4.30;0.32;;;4.90;99.90;;;;;;5042818;28;20116;-78
2023/02/04 08:02:45;;;;;;;5.65;0.35;;;5.00;99.90;;;;;;5038632;28;20569;-80
2023/02/04 08:05:11;;;;;;;3.90;0.35;;;5.10;99.90;;;;;;5023107;28;20104;-78
2023/02/04 08:07:37;;;;;;;7.75;0.45;;;5.20;99.90;;;;;;5020951;28;20035;-79
2023/02/04 08:10:05;;;;;;;7.47;0.88;;;5.30;99.90;;;;;;5037459;28;20028;-77
2023/02/04 08:12:31;;;;;;;9.68;0.40;;;5.30;99.90;;;;;;5019667;28;20029;-76
2023/02/04 08:14:57;;;;;;;3.70;0.45;;;5.30;99.90;;;;;;5021416;28;20532;-77
2023/02/04 08:17:22;;;;;;;7.63;0.65;;;5.40;99.90;;;;;;5037534;28;20093;-76
2023/02/04 08:19:48;;;;;;;5.32;0.57;;;5.40;99.90;;;;;;5036590;28;20469;-79
2023/02/04 08:22:14;;;;;;;9.60;0.60;;;5.50;99.90;;;;;;5034690;28;20366;-76
2023/02/04 08:24:39;;;;;;;11.25;0.60;;;5.50;99.90;;;;;;5035305;28;20063;-79
2023/02/04 08:27:05;;;;;;;8.48;1.10;;;5.60;99.90;;;;;;5039233;28;20379;-77
2023/02/04 08:29:31;;;;;;;8.68;0.40;;;5.60;99.90;;;;;;5038151;28;20082;-77
2023/02/04 08:31:56;;;;;;;12.60;0.65;;;5.70;99.90;;;;;;5036108;28;20025;-77
2023/02/04 08:34:22;;;;;;;8.77;0.90;;;5.80;99.90;;;;;;5036120;28;20025;-76
2023/02/04 08:36:47;;;;;;;12.77;0.93;;;5.90;99.90;;;;;;5039437;28;20033;-77
2023/02/04 08:39:13;;;;;;;11.52;0.70;;;6.00;99.90;;;;;;5035712;28;20037;-77
2023/02/04 08:41:39;;;;;;;8.10;0.80;;;6.00;99.90;;;;;;5035184;28;20029;-77
2023/02/04 08:44:05;;;;;;;8.52;0.63;;;6.10;99.90;;;;;;5025301;28;20091;-76
2023/02/04 08:46:30;;;;;;;10.00;1.05;;;6.20;99.90;;;;;;5039494;28;20409;-79
2023/02/04 08:48:56;;;;;;;8.55;0.63;;;6.20;99.90;;;;;;5042101;28;20068;-76
2023/02/04 08:51:22;;;;;;;12.38;1.27;;;6.20;99.90;;;;;;5037488;28;20158;-76
2023/02/04 08:53:47;;;;;;;15.68;2.13;;;6.20;99.90;;;;;;5042757;28;20132;-77
2023/02/04 08:56:19;;;;;;;15.90;2.78;;;6.30;99.90;;;;;;5041287;28;20029;-76
2023/02/04 08:58:45;;;;;;;22.15;4.80;;;6.30;99.90;;;;;;5037354;28;20465;-77
2023/02/04 09:01:11;;;;;;;19.88;3.50;;;6.30;99.90;;;;;;5033556;28;20109;-80
2023/02/04 09:03:38;;;;;;;19.02;2.35;;;6.40;99.90;;;;;;5033708;28;20463;-76
2023/02/04 09:06:05;;;;;;;13.93;1.80;;;6.40;99.90;;;;;;5035909;28;20080;-76
2023/02/04 09:08:31;;;;;;;14.57;1.73;;;6.50;99.90;;;;;;5023650;28;20034;-77
2023/02/04 09:10:56;;;;;;;14.88;1.50;;;6.60;99.90;;;;;;5044745;28;20032;-77
2023/02/04 09:13:22;;;;;;;16.20;1.50;;;6.60;99.90;;;;;;5035146;28;20026;-78
2023/02/04 09:15:48;;;;;;;14.48;1.98;;;6.60;99.90;;;;;;5038736;28;20349;-76
2023/02/04 09:18:16;;;;;;;10.07;1.38;;;6.70;99.90;;;;;;5035067;28;20025;-77
2023/02/04 09:20:43;;;;;;;14.40;1.38;;;6.80;99.90;;;;;;5040610;28;20063;-78
2023/02/04 09:23:10;;;;;;;15.73;1.50;;;6.80;99.90;;;;;;5045121;28;20437;-77
2023/02/04 09:25:40;;;;;;;13.90;0.85;;;6.90;99.90;;;;;;5037793;28;20025;-77
2023/02/04 09:28:10;;;;;;;10.90;1.52;;;7.00;99.90;;;;;;5029059;28;20030;-78
2023/02/04 09:30:36;;;;;;;14.35;2.15;;;7.10;99.90;;;;;;5035908;28;20091;-76
2023/02/04 09:33:01;;;;;;;15.73;2.20;;;7.10;99.90;;;;;;5046264;28;20035;-78
2023/02/04 09:35:27;;;;;;;17.65;2.28;;;7.10;99.90;;;;;;5046795;28;20024;-76
2023/02/04 09:37:53;;;;;;;16.45;2.38;;;7.20;99.90;;;;;;5040402;28;20033;-77
2023/02/04 09:40:19;;;;;;;13.65;1.40;;;7.20;99.90;;;;;;5042763;28;20486;-78
2023/02/04 09:42:50;;;;;;;16.55;1.17;;;7.20;99.90;;;;;;5043823;28;20021;-76
2023/02/04 09:45:22;;;;;;;18.08;1.58;;;7.20;99.90;;;;;;5034166;28;20227;-77
2023/02/04 09:47:50;;;;;;;18.75;1.77;;;7.30;99.90;;;;;;5038108;28;20031;-77
2023/02/04 09:50:19;;;;;;;14.57;1.95;;;7.20;99.90;;;;;;5043017;28;20045;-79
2023/02/04 09:52:48;;;;;;;17.00;1.75;;;7.20;99.90;;;;;;5035110;28;20037;-79
2023/02/04 09:55:15;;;;;;;17.80;1.73;;;7.20;99.90;;;;;;5036780;28;20287;-78
2023/02/04 09:57:41;;;;;;;17.17;1.35;;;7.30;99.90;;;;;;5044547;28;20021;-78
2023/02/04 10:00:15;;;;;;;6.45;0.80;;;7.30;99.90;;;;;;5040311;28;20419;-79
2023/02/04 10:02:42;;;;;;;13.05;1.20;;;7.50;99.90;;;;;;5038894;28;20025;-77
2023/02/04 10:05:28;;;;;;;18.23;2.45;;;7.40;99.90;;;;;;5034138;28;20033;-76
2023/02/04 10:07:54;;;;;;;20.30;6.00;;;7.50;99.90;;;;;;5042952;28;20033;-77
2023/02/04 10:10:24;;;;;;;18.60;4.68;;;7.50;99.90;;;;;;5045543;28;20074;-76
2023/02/04 10:12:51;;;;;;;21.70;3.65;;;7.70;99.90;;;;;;5039240;28;20359;-77
2023/02/04 10:15:19;;;;;;;18.30;3.15;;;7.60;99.90;;;;;;5042341;28;20045;-77
2023/02/04 10:17:46;;;;;;;14.75;2.55;;;7.70;99.90;;;;;;5039698;28;20017;-76
2023/02/04 10:20:18;;;;;;;19.75;1.52;;;7.80;99.90;;;;;;5035324;28;20098;-77
2023/02/04 10:22:45;;;;;;;24.23;3.33;;;7.90;99.90;;;;;;5041328;28;20543;-77
2023/02/04 10:25:13;;;;;;;16.65;1.40;;;7.80;99.90;;;;;;5040574;28;20040;-78
2023/02/04 10:27:56;;;;;;;23.10;2.03;;;7.90;99.90;;;;;;5034368;28;20231;-77
2023/02/04 10:30:24;;;;;;;20.60;2.20;;;7.90;99.90;;;;;;5037374;28;20029;-76
2023/02/04 10:32:50;;;;;;;13.57;1.08;;;8.10;99.90;;;;;;5046730;28;20430;-78
2023/02/04 10:35:18;;;;;;;11.30;1.40;;;8.10;99.90;;;;;;5036679;28;20512;-77
2023/02/04 10:37:44;;;;;;;9.50;0.88;;;8.10;99.90;;;;;;5036894;28;20032;-78
2023/02/04 10:40:31;;;;;;;11.80;1.30;;;8.10;99.90;;;;;;5040887;28;20175;-77
2023/02/04 10:42:57;;;;;;;13.73;0.98;;;8.10;99.90;;;;;;5034118;28;20025;-79
2023/02/04 10:45:25;;;;;;;13.75;0.95;;;8.20;99.90;;;;;;5039043;28;20041;-77
2023/02/04 10:47:53;;;;;;;12.32;0.75;;;8.30;99.90;;;;;;5040255;28;20056;-79
2023/02/04 10:50:22;;;;;;;14.95;1.27;;;8.30;99.90;;;;;;5039714;28;20068;-79
2023/02/04 10:55:45;;;;;;;4.05;0.50;;;8.50;99.90;;;;;;5039823;28;20067;-77
2023/02/04 10:58:32;;;;;;;14.77;1.15;;;8.60;99.90;;;;;;5034601;28;20108;-78
2023/02/04 11:00:58;;;;;;;17.27;2.50;;;8.40;99.90;;;;;;5054064;28;20491;-78
2023/02/04 11:03:27;;;;;;;15.23;1.08;;;8.30;99.90;;;;;;5021461;28;20062;-77
2023/02/04 11:05:56;;;;;;;16.30;1.38;;;8.40;99.90;;;;;;5018945;28;20036;-78
2023/02/04 11:08:35;;;;;;;12.20;0.73;;;8.30;99.90;;;;;;5032711;28;20029;-78
2023/02/04 11:11:03;;;;;;;11.98;0.90;;;8.30;99.90;;;;;;5039042;28;20123;-77
2023/02/04 11:13:43;;;;;;;14.48;1.10;;;8.50;99.90;;;;;;5039875;28;20555;-78
2023/02/04 11:16:17;;;;;;;7.35;0.75;;;8.70;99.90;;;;;;5036087;28;20353;-77
2023/02/04 11:18:50;;;;;;;11.63;0.68;;;8.60;99.90;;;;;;5033679;28;20133;-77
2023/02/04 11:21:39;;;;;;;19.20;1.80;;;8.90;99.90;;;;;;5034613;28;20144;-78
2023/02/04 11:24:12;;;;;;;18.48;1.40;;;8.90;99.90;;;;;;5036627;28;20071;-78
2023/02/04 11:26:42;;;;;;;17.35;1.52;;;8.90;99.90;;;;;;5024860;28;20033;-78
2023/02/04 11:29:09;;;;;;;13.30;0.73;;;8.90;99.90;;;;;;5016662;28;20029;-78
2023/02/04 11:31:41;;;;;;;11.98;0.88;;;9.00;99.90;;;;;;5039549;28;20039;-77
2023/02/04 11:34:18;;;;;;;12.38;0.93;;;8.90;99.90;;;;;;5034592;28;20040;-78
2023/02/04 11:36:55;;;;;;;11.07;0.80;;;9.00;99.90;;;;;;5038246;28;20037;-77
2023/02/04 11:39:25;;;;;;;8.50;0.85;;;9.10;99.90;;;;;;5034771;28;20047;-77
2023/02/04 11:41:51;;;;;;;9.38;0.60;;;9.20;99.90;;;;;;5034812;28;20025;-78
2023/02/04 11:44:18;;;;;;;13.90;0.90;;;9.50;99.90;;;;;;5044015;28;20055;-78
2023/02/04 11:46:50;;;;;;;16.05;2.13;;;9.30;99.90;;;;;;5037467;28;20075;-78
2023/02/04 11:49:19;;;;;;;13.80;1.48;;;9.30;99.90;;;;;;5038166;28;20053;-78
2023/02/04 11:51:45;;;;;;;14.55;1.60;;;9.30;99.90;;;;;;5032679;28;20115;-78
2023/02/04 11:54:18;;;;;;;17.00;1.42;;;9.40;99.90;;;;;;5038146;28;20043;-77
2023/02/04 11:56:47;;;;;;;20.80;1.85;;;9.30;99.90;;;;;;5040757;28;20029;-77
2023/02/04 11:59:13;;;;;;;16.20;1.50;;;9.10;99.90;;;;;;5035035;28;20433;-77
2023/02/04 12:01:40;;;;;;;13.05;1.17;;;9.10;99.90;;;;;;5037809;28;20749;-77
2023/02/04 12:04:22;;;;;;;16.20;1.15;;;9.10;99.90;;;;;;5035262;28;20102;-78
2023/02/04 12:07:02;;;;;;;11.40;1.45;;;9.30;99.90;;;;;;5037961;28;20083;-78
2023/02/04 12:09:29;;;;;;;10.65;0.80;;;9.30;99.90;;;;;;5037026;28;20032;-78
2023/02/04 12:12:00;;;;;;;19.02;1.67;;;9.40;99.90;;;;;;5032971;28;20076;-78
2023/02/04 12:14:35;;;;;;;15.23;1.58;;;9.30;99.90;;;;;;5038172;28;20061;-79
2023/02/04 12:17:19;;;;;;;12.60;0.60;;;9.30;99.90;;;;;;5041749;28;20036;-78
2023/02/04 12:19:44;;;;;;;15.45;1.35;;;9.50;99.90;;;;;;5035277;28;20051;-77
2023/02/04 12:22:10;;;;;;;12.15;0.80;;;9.30;99.90;;;;;;5043785;28;20033;-78
2023/02/04 12:24:36;;;;;;;13.55;0.80;;;9.30;99.90;;;;;;5041472;28;20028;-76
2023/02/04 12:27:02;;;;;;;19.30;1.48;;;9.30;99.90;;;;;;5034368;28;20463;-76
2023/02/04 12:29:27;;;;;;;10.85;0.77;;;9.20;99.90;;;;;;5040501;28;20026;-76
2023/02/04 12:31:53;;;;;;;11.57;0.70;;;9.30;99.90;;;;;;5036772;28;20060;-77
2023/02/04 12:34:19;;;;;;;10.23;1.13;;;9.30;99.90;;;;;;5039902;28;20042;-77
2023/02/04 12:36:44;;;;;;;11.00;0.90;;;9.50;99.90;;;;;;5037168;28;20029;-76
2023/02/04 12:39:10;;;;;;;13.68;1.73;;;9.50;99.90;;;;;;5028492;28;20037;-76
2023/02/04 12:41:36;;;;;;;10.73;0.85;;;9.40;99.90;;;;;;5044360;28;20028;-76
2023/02/04 12:44:01;;;;;;;11.23;0.70;;;9.40;99.90;;;;;;5026725;28;20111;-76
2023/02/04 12:46:28;;;;;;;9.77;0.82;;;9.30;99.90;;;;;;5040856;28;20124;-77
2023/02/04 12:48:54;;;;;;;9.50;0.80;;;9.50;99.90;;;;;;5019828;28;20103;-77
2023/02/04 12:51:20;;;;;;;14.82;0.60;;;9.50;99.90;;;;;;5037971;28;20445;-77
2023/02/04 12:53:47;;;;;;;8.35;0.60;;;9.30;99.90;;;;;;5025064;28;20026;-77